N960 KPHX-KFLG
Flight info
| Callsign | N960 |
|---|---|
| Flight time | 0h 34m |
| Altitude | 17000 |
| Route | QUAKY1 CARTL FLG |
| Aircraft | C25C/M-BGS/L |
Departure
| Time | 2026-05-04 00:28 |
|---|---|
| Airport | Phoenix Sky Harbor International Airport (KPHX) |
Arrival
| Time | 2026-05-04 01:03 |
|---|---|
| Airport | Flagstaff Pulliam Airport (KFLG) |
| Time | Latitude | Longitude | Altitude | Speed | Heading |
|---|---|---|---|---|---|
| 2026-05-04 00:08 | 33.42704 | -112.00979 | 1124 ft | 0 kts | 180° |
| 2026-05-04 00:15 | 33.42702 | -112.00979 | 1124 ft | 2 kts | 180° |
| 2026-05-04 00:16 | 33.42699 | -112.00967 | 1124 ft | 1 kts | 47° |
| 2026-05-04 00:16 | 33.42717 | -112.00975 | 1118 ft | 0 kts | 343° |
| 2026-05-04 00:17 | 33.42760 | -112.00962 | 1124 ft | 16 kts | 47° |
| 2026-05-04 00:17 | 33.42775 | -112.00834 | 1124 ft | 16 kts | 90° |
| 2026-05-04 00:17 | 33.42775 | -112.00704 | 1124 ft | 16 kts | 90° |
| 2026-05-04 00:17 | 33.42776 | -112.00586 | 1124 ft | 0 kts | 84° |
| 2026-05-04 00:20 | 33.42779 | -112.00572 | 1124 ft | 5 kts | 74° |
| 2026-05-04 00:20 | 33.42787 | -112.00553 | 1117 ft | 0 kts | 51° |
| 2026-05-04 00:25 | 33.42830 | -112.00534 | 1119 ft | 16 kts | 8° |
| 2026-05-04 00:25 | 33.42882 | -112.00581 | 1124 ft | 4 kts | 275° |
| 2026-05-04 00:26 | 33.42882 | -112.00582 | 1124 ft | 0 kts | 274° |
| 2026-05-04 00:27 | 33.42885 | -112.00961 | 1125 ft | 99 kts | 270° |
| 2026-05-04 00:28 | 33.42881 | -112.02134 | 1270 ft | 172 kts | 267° |
| 2026-05-04 00:28 | 33.42860 | -112.03687 | 1869 ft | 195 kts | 266° |
| 2026-05-04 00:28 | 33.42967 | -112.05321 | 2764 ft | 195 kts | 271° |
| 2026-05-04 00:28 | 33.43088 | -112.06889 | 3914 ft | 185 kts | 269° |
| 2026-05-04 00:29 | 33.43101 | -112.08441 | 4798 ft | 192 kts | 262° |
| 2026-05-04 00:29 | 33.43048 | -112.10097 | 5493 ft | 205 kts | 265° |
| 2026-05-04 00:29 | 33.43171 | -112.11796 | 6428 ft | 204 kts | 271° |
| 2026-05-04 00:29 | 33.43298 | -112.13534 | 7025 ft | 219 kts | 268° |
| 2026-05-04 00:30 | 33.43387 | -112.15425 | 7531 ft | 233 kts | 268° |
| 2026-05-04 00:30 | 33.43864 | -112.17305 | 8100 ft | 254 kts | 301° |
| 2026-05-04 00:30 | 33.45324 | -112.18558 | 8813 ft | 263 kts | 334° |
| 2026-05-04 00:30 | 33.47091 | -112.19007 | 9653 ft | 264 kts | 357° |
| 2026-05-04 00:31 | 33.48922 | -112.19128 | 10316 ft | 265 kts | 355° |
| 2026-05-04 00:31 | 33.50803 | -112.19267 | 10810 ft | 274 kts | 354° |
| 2026-05-04 00:31 | 33.52702 | -112.19197 | 11355 ft | 280 kts | 12° |
| 2026-05-04 00:31 | 33.54619 | -112.18624 | 11843 ft | 284 kts | 11° |
| 2026-05-04 00:32 | 33.56565 | -112.18330 | 12466 ft | 281 kts | 2° |
| 2026-05-04 00:32 | 33.58492 | -112.18049 | 13157 ft | 279 kts | 8° |
| 2026-05-04 00:32 | 33.60452 | -112.17469 | 13890 ft | 306 kts | 15° |
| 2026-05-04 00:32 | 33.61639 | -112.16868 | 14284 ft | 321 kts | 28° |
| 2026-05-04 00:33 | 33.62865 | -112.15767 | 14893 ft | 333 kts | 45° |
| 2026-05-04 00:33 | 33.66791 | -112.10630 | 16061 ft | 400 kts | 48° |
| 2026-05-04 00:33 | 33.68659 | -112.08016 | 16044 ft | 424 kts | 49° |
| 2026-05-04 00:34 | 33.70667 | -112.05387 | 16047 ft | 425 kts | 45° |
| 2026-05-04 00:34 | 33.72064 | -112.03692 | 16041 ft | 419 kts | 45° |
| 2026-05-04 00:34 | 33.74178 | -112.01343 | 16037 ft | 410 kts | 36° |
| 2026-05-04 00:34 | 33.76704 | -111.99848 | 16021 ft | 402 kts | 16° |
| 2026-05-04 00:35 | 33.79411 | -111.99172 | 16022 ft | 395 kts | 6° |
| 2026-05-04 00:35 | 33.82113 | -111.98649 | 16022 ft | 393 kts | 6° |
| 2026-05-04 00:35 | 33.84792 | -111.98177 | 16019 ft | 395 kts | 5° |
| 2026-05-04 00:35 | 33.87528 | -111.97670 | 16018 ft | 401 kts | 6° |
| 2026-05-04 00:36 | 33.90306 | -111.97128 | 16020 ft | 406 kts | 6° |
| 2026-05-04 00:36 | 33.93109 | -111.96589 | 16021 ft | 411 kts | 6° |
| 2026-05-04 00:36 | 33.95943 | -111.96061 | 16021 ft | 413 kts | 6° |
| 2026-05-04 00:36 | 33.98778 | -111.95523 | 16022 ft | 413 kts | 6° |
| 2026-05-04 00:37 | 34.01619 | -111.94983 | 16012 ft | 414 kts | 6° |
| 2026-05-04 00:37 | 34.04459 | -111.94442 | 16022 ft | 413 kts | 6° |
| 2026-05-04 00:37 | 34.07297 | -111.93901 | 16020 ft | 412 kts | 6° |
| 2026-05-04 00:37 | 34.10135 | -111.93649 | 16016 ft | 407 kts | 352° |
| 2026-05-04 00:38 | 34.12945 | -111.93983 | 16021 ft | 405 kts | 351° |
| 2026-05-04 00:38 | 34.15756 | -111.94289 | 16022 ft | 405 kts | 351° |
| 2026-05-04 00:38 | 34.18563 | -111.94601 | 16032 ft | 405 kts | 351° |
| 2026-05-04 00:38 | 34.21373 | -111.94911 | 16032 ft | 405 kts | 351° |
| 2026-05-04 00:39 | 34.24178 | -111.95219 | 16037 ft | 405 kts | 351° |
| 2026-05-04 00:39 | 34.26987 | -111.95531 | 16039 ft | 405 kts | 351° |
| 2026-05-04 00:39 | 34.29796 | -111.95839 | 16042 ft | 405 kts | 351° |
| 2026-05-04 00:39 | 34.32601 | -111.96150 | 16046 ft | 405 kts | 351° |
| 2026-05-04 00:40 | 34.35409 | -111.96461 | 16053 ft | 405 kts | 351° |
| 2026-05-04 00:40 | 34.38219 | -111.96773 | 16045 ft | 405 kts | 351° |
| 2026-05-04 00:40 | 34.41027 | -111.97082 | 16047 ft | 406 kts | 351° |
| 2026-05-04 00:40 | 34.43837 | -111.97395 | 16053 ft | 406 kts | 351° |
| 2026-05-04 00:41 | 34.46589 | -111.97695 | 16050 ft | 385 kts | 351° |
| 2026-05-04 00:41 | 34.49151 | -111.97969 | 16041 ft | 365 kts | 351° |
| 2026-05-04 00:41 | 34.51627 | -111.98249 | 16031 ft | 350 kts | 350° |
| 2026-05-04 00:41 | 34.54004 | -111.98512 | 16040 ft | 337 kts | 350° |
| 2026-05-04 00:42 | 34.56307 | -111.98769 | 16055 ft | 328 kts | 350° |
| 2026-05-04 00:42 | 34.58546 | -111.99015 | 16066 ft | 319 kts | 350° |
| 2026-05-04 00:42 | 34.60731 | -111.99259 | 16069 ft | 313 kts | 350° |
| 2026-05-04 00:42 | 34.62889 | -111.99499 | 16090 ft | 308 kts | 350° |
| 2026-05-04 00:43 | 34.65008 | -111.99734 | 16094 ft | 304 kts | 350° |
| 2026-05-04 00:43 | 34.67101 | -111.99965 | 16106 ft | 301 kts | 350° |
| 2026-05-04 00:43 | 34.69177 | -112.00196 | 16109 ft | 298 kts | 350° |
| 2026-05-04 00:43 | 34.71264 | -112.00428 | 16117 ft | 296 kts | 350° |
| 2026-05-04 00:44 | 34.73284 | -112.00653 | 16125 ft | 295 kts | 350° |
| 2026-05-04 00:44 | 34.75354 | -112.00884 | 15899 ft | 303 kts | 350° |
| 2026-05-04 00:44 | 34.77475 | -112.01124 | 15662 ft | 309 kts | 351° |
| 2026-05-04 00:44 | 34.79639 | -112.01267 | 15417 ft | 316 kts | 2° |
| 2026-05-04 00:45 | 34.81736 | -112.00387 | 15174 ft | 325 kts | 29° |
| 2026-05-04 00:45 | 34.83386 | -111.98525 | 14935 ft | 325 kts | 57° |
| 2026-05-04 00:45 | 34.84583 | -111.96193 | 14717 ft | 325 kts | 64° |
| 2026-05-04 00:45 | 34.85571 | -111.93723 | 14503 ft | 324 kts | 68° |
| 2026-05-04 00:46 | 34.86489 | -111.91208 | 14286 ft | 325 kts | 70° |
| 2026-05-04 00:46 | 34.87392 | -111.88684 | 14065 ft | 325 kts | 70° |
| 2026-05-04 00:46 | 34.88295 | -111.86157 | 13839 ft | 326 kts | 70° |
| 2026-05-04 00:46 | 34.89202 | -111.83630 | 13647 ft | 324 kts | 70° |
| 2026-05-04 00:47 | 34.90105 | -111.81131 | 13516 ft | 321 kts | 70° |
| 2026-05-04 00:47 | 34.91001 | -111.78655 | 13393 ft | 318 kts | 70° |
| 2026-05-04 00:47 | 34.92149 | -111.76360 | 13246 ft | 322 kts | 50° |
| 2026-05-04 00:47 | 34.93486 | -111.74204 | 13112 ft | 317 kts | 64° |
| 2026-05-04 00:48 | 34.94435 | -111.71780 | 12975 ft | 315 kts | 70° |
| 2026-05-04 00:48 | 34.95190 | -111.69321 | 12839 ft | 312 kts | 75° |
| 2026-05-04 00:48 | 34.96123 | -111.66947 | 12835 ft | 312 kts | 59° |
| 2026-05-04 00:48 | 34.97520 | -111.64909 | 12790 ft | 313 kts | 52° |
| 2026-05-04 00:49 | 34.98788 | -111.62766 | 12806 ft | 306 kts | 60° |
| 2026-05-04 00:49 | 34.99883 | -111.60556 | 12806 ft | 303 kts | 61° |
| 2026-05-04 00:49 | 35.01029 | -111.58357 | 12545 ft | 310 kts | 57° |
| 2026-05-04 00:49 | 35.02329 | -111.56246 | 12333 ft | 314 kts | 54° |
| 2026-05-04 00:50 | 35.03647 | -111.54090 | 12063 ft | 317 kts | 58° |
| 2026-05-04 00:50 | 35.04848 | -111.51831 | 11910 ft | 316 kts | 61° |
| 2026-05-04 00:50 | 35.05997 | -111.49545 | 11803 ft | 315 kts | 57° |
| 2026-05-04 00:50 | 35.07265 | -111.47368 | 11635 ft | 315 kts | 58° |
| 2026-05-04 00:51 | 35.08402 | -111.45080 | 11506 ft | 313 kts | 60° |
| 2026-05-04 00:51 | 35.09578 | -111.42846 | 11384 ft | 313 kts | 57° |
| 2026-05-04 00:51 | 35.10835 | -111.40678 | 11242 ft | 312 kts | 57° |
| 2026-05-04 00:51 | 35.12009 | -111.38477 | 11222 ft | 308 kts | 60° |
| 2026-05-04 00:52 | 35.13135 | -111.36278 | 11171 ft | 300 kts | 60° |
| 2026-05-04 00:52 | 35.14275 | -111.34177 | 11145 ft | 291 kts | 56° |
| 2026-05-04 00:52 | 35.15449 | -111.32182 | 10974 ft | 288 kts | 57° |
| 2026-05-04 00:52 | 35.16568 | -111.30173 | 10890 ft | 282 kts | 59° |
| 2026-05-04 00:53 | 35.17596 | -111.28208 | 10871 ft | 275 kts | 59° |
| 2026-05-04 00:53 | 35.18882 | -111.26511 | 10814 ft | 273 kts | 36° |
| 2026-05-04 00:53 | 35.20589 | -111.25634 | 10771 ft | 262 kts | 4° |
| 2026-05-04 00:53 | 35.22313 | -111.25993 | 10631 ft | 248 kts | 325° |
| 2026-05-04 00:54 | 35.23562 | -111.27373 | 10390 ft | 241 kts | 302° |
| 2026-05-04 00:54 | 35.24554 | -111.28982 | 10377 ft | 232 kts | 298° |
| 2026-05-04 00:54 | 35.25482 | -111.30557 | 10429 ft | 223 kts | 298° |
| 2026-05-04 00:54 | 35.26410 | -111.32072 | 10404 ft | 222 kts | 302° |
| 2026-05-04 00:55 | 35.27392 | -111.33535 | 10314 ft | 219 kts | 297° |
| 2026-05-04 00:55 | 35.28260 | -111.35037 | 10414 ft | 210 kts | 297° |
| 2026-05-04 00:55 | 35.29074 | -111.36481 | 10494 ft | 203 kts | 296° |
| 2026-05-04 00:55 | 35.29867 | -111.37908 | 10403 ft | 206 kts | 296° |
| 2026-05-04 00:56 | 35.30747 | -111.39329 | 10363 ft | 212 kts | 302° |
| 2026-05-04 00:56 | 35.31718 | -111.40664 | 10493 ft | 203 kts | 299° |
| 2026-05-04 00:56 | 35.32401 | -111.42095 | 10552 ft | 184 kts | 269° |
| 2026-05-04 00:56 | 35.32062 | -111.43535 | 10347 ft | 183 kts | 230° |
| 2026-05-04 00:57 | 35.31237 | -111.44733 | 10261 ft | 187 kts | 229° |
| 2026-05-04 00:57 | 35.30417 | -111.45980 | 10283 ft | 184 kts | 230° |
| 2026-05-04 00:57 | 35.29635 | -111.47226 | 10226 ft | 186 kts | 227° |
| 2026-05-04 00:57 | 35.28810 | -111.48432 | 10262 ft | 183 kts | 228° |
| 2026-05-04 00:58 | 35.28009 | -111.49645 | 10299 ft | 181 kts | 228° |
| 2026-05-04 00:58 | 35.27177 | -111.50803 | 10265 ft | 182 kts | 226° |
| 2026-05-04 00:58 | 35.26441 | -111.51933 | 10371 ft | 164 kts | 230° |
| 2026-05-04 00:58 | 35.25823 | -111.53085 | 10344 ft | 155 kts | 233° |
| 2026-05-04 00:59 | 35.25144 | -111.54127 | 10198 ft | 159 kts | 223° |
| 2026-05-04 00:59 | 35.24327 | -111.55062 | 9995 ft | 165 kts | 221° |
| 2026-05-04 00:59 | 35.23478 | -111.56043 | 9758 ft | 171 kts | 220° |
| 2026-05-04 00:59 | 35.22582 | -111.57033 | 9490 ft | 177 kts | 220° |
| 2026-05-04 01:00 | 35.21660 | -111.58055 | 9203 ft | 181 kts | 222° |
| 2026-05-04 01:00 | 35.20764 | -111.59152 | 8949 ft | 181 kts | 223° |
| 2026-05-04 01:00 | 35.19849 | -111.60173 | 8801 ft | 178 kts | 220° |
| 2026-05-04 01:00 | 35.18999 | -111.61167 | 8826 ft | 168 kts | 223° |
| 2026-05-04 01:01 | 35.18246 | -111.62219 | 8512 ft | 146 kts | 228° |
| 2026-05-04 01:01 | 35.17660 | -111.63056 | 8024 ft | 118 kts | 224° |
| 2026-05-04 01:01 | 35.17112 | -111.63665 | 7657 ft | 97 kts | 219° |
| 2026-05-04 01:01 | 35.16618 | -111.64221 | 7485 ft | 97 kts | 216° |
| 2026-05-04 01:02 | 35.16074 | -111.64759 | 7287 ft | 103 kts | 217° |
| 2026-05-04 01:02 | 35.15560 | -111.65304 | 7207 ft | 97 kts | 221° |
| 2026-05-04 01:02 | 35.15061 | -111.65836 | 7058 ft | 95 kts | 219° |
| 2026-05-04 01:02 | 35.14578 | -111.66348 | 6998 ft | 90 kts | 221° |
| 2026-05-04 01:03 | 35.14241 | -111.66732 | 7003 ft | 34 kts | 255° |
| 2026-05-04 01:03 | 35.14262 | -111.66853 | 7006 ft | 13 kts | 229° |
| 2026-05-04 01:03 | 35.14196 | -111.66929 | 6999 ft | 14 kts | 221° |
| 2026-05-04 01:03 | 35.14115 | -111.67015 | 6997 ft | 18 kts | 221° |
| 2026-05-04 01:04 | 35.14002 | -111.67136 | 7004 ft | 26 kts | 221° |
| 2026-05-04 01:04 | 35.13859 | -111.67286 | 7007 ft | 26 kts | 221° |
| 2026-05-04 01:04 | 35.13781 | -111.67419 | 7009 ft | 14 kts | 296° |
| 2026-05-04 01:04 | 35.13821 | -111.67462 | 7008 ft | 0 kts | 341° |